createdAt,value
2023-02-06T00:03:44.151Z,29.98
2023-02-06T00:08:47.269Z,45.53
2023-02-06T00:13:50.542Z,28.65
2023-02-06T00:18:55.752Z,38.15
2023-02-06T00:23:59.869Z,47.67
2023-02-06T00:29:03.065Z,43.08
2023-02-06T00:34:07.545Z,40.83
2023-02-06T00:39:10.780Z,44.63
2023-02-06T00:44:13.938Z,28.38
2023-02-06T00:49:18.485Z,34.53
2023-02-06T00:54:21.885Z,32.97
2023-02-06T00:59:25.029Z,36.95
2023-02-06T01:04:29.598Z,27.30
2023-02-06T01:09:32.740Z,25.40
2023-02-06T01:14:35.854Z,19.40
2023-02-06T01:19:40.849Z,29.17
2023-02-06T01:24:43.954Z,23.90
2023-02-06T01:29:47.093Z,22.23
2023-02-06T01:34:51.623Z,25.92
2023-02-06T01:39:54.758Z,24.05
2023-02-06T01:45:19.340Z,35.90
2023-02-06T01:50:23.919Z,32.83
2023-02-06T01:55:27.252Z,43.88
2023-02-06T02:00:30.351Z,29.52
2023-02-06T02:05:35.623Z,33.35
2023-02-06T02:10:39.175Z,25.40
2023-02-06T02:15:47.350Z,23.48
2023-02-06T02:21:11.446Z,23.80
2023-02-06T02:26:45.102Z,35.35
2023-02-06T02:32:17.597Z,29.40
2023-02-06T02:37:27.392Z,27.50
2023-02-06T02:42:39.343Z,36.35
2023-02-06T02:47:44.748Z,27.48
2023-02-06T02:52:49.569Z,24.38
2023-02-06T02:57:55.052Z,24.67
2023-02-06T03:02:58.760Z,25.27
2023-02-06T03:08:08.237Z,40.17
2023-02-06T03:13:16.387Z,35.65
2023-02-06T03:18:20.945Z,21.13
2023-02-06T03:23:28.385Z,24.42
2023-02-06T03:28:33.143Z,20.17
2023-02-06T03:33:37.933Z,24.58
2023-02-06T03:38:42.441Z,20.95
2023-02-06T03:43:47.032Z,19.42
2023-02-06T03:48:52.467Z,18.30
2023-02-06T03:53:59.150Z,24.30
2023-02-06T03:59:02.435Z,21.80
2023-02-06T04:04:05.773Z,18.20
2023-02-06T04:09:10.479Z,15.38
2023-02-06T04:14:13.706Z,21.23
2023-02-06T04:19:16.990Z,16.80
2023-02-06T04:24:21.583Z,16.83
2023-02-06T04:29:24.737Z,18.05
2023-02-06T04:34:27.867Z,28.58
2023-02-06T04:39:32.269Z,18.95
2023-02-06T04:44:35.400Z,26.85
2023-02-06T04:49:38.554Z,11.07
2023-02-06T04:54:42.990Z,20.02
2023-02-06T04:59:46.061Z,21.55
2023-02-06T05:04:49.141Z,23.23
2023-02-06T05:09:53.563Z,20.63
2023-02-06T05:14:56.691Z,18.58
2023-02-06T05:20:00.086Z,19.15
2023-02-06T05:25:04.646Z,19.77
2023-02-06T05:30:08.098Z,15.88
2023-02-06T05:35:11.392Z,27.73
2023-02-06T05:40:15.994Z,20.90
2023-02-06T05:45:19.228Z,27.80
2023-02-06T05:50:22.527Z,15.73
2023-02-06T05:55:28.610Z,18.95
2023-02-06T06:00:31.743Z,17.30
2023-02-06T06:05:35.102Z,18.35
2023-02-06T06:10:39.871Z,16.38
2023-02-06T06:15:43.369Z,25.88
2023-02-06T06:20:46.693Z,13.65
2023-02-06T06:25:51.424Z,25.27
2023-02-06T06:31:00.957Z,16.73
2023-02-06T06:36:04.810Z,20.65
2023-02-06T06:41:09.374Z,23.48
2023-02-06T06:46:12.499Z,15.82
2023-02-06T06:51:15.615Z,16.65
2023-02-06T06:56:20.089Z,13.52
2023-02-06T07:01:23.254Z,19.38
2023-02-06T07:06:26.459Z,17.92
2023-02-06T07:11:30.916Z,14.20
2023-02-06T07:16:34.027Z,20.88
2023-02-06T07:21:37.170Z,22.98
2023-02-06T07:26:42.354Z,21.48
2023-02-06T07:31:45.807Z,25.38
2023-02-06T07:36:49.062Z,22.70
2023-02-06T07:41:53.668Z,22.73
2023-02-06T07:46:59.017Z,21.05
2023-02-06T07:52:02.166Z,24.42
2023-02-06T07:57:06.999Z,14.00
2023-02-06T08:02:10.838Z,19.60
2023-02-06T08:07:15.221Z,17.15
2023-02-06T08:12:19.820Z,14.75
2023-02-06T08:17:23.229Z,13.77
2023-02-06T08:22:26.504Z,19.65
2023-02-06T08:27:31.523Z,16.50
2023-02-06T08:32:35.093Z,21.95
2023-02-06T08:37:38.581Z,17.60
2023-02-06T08:42:43.312Z,16.83
2023-02-06T08:47:46.717Z,21.23
2023-02-06T08:52:50.077Z,17.42
2023-02-06T08:57:55.184Z,16.02
2023-02-06T09:02:58.633Z,18.40
2023-02-06T09:08:02.164Z,21.45
2023-02-06T09:13:06.974Z,32.97
2023-02-06T09:18:10.502Z,26.73
2023-02-06T09:23:13.738Z,30.70
2023-02-06T09:28:18.290Z,16.27
2023-02-06T09:33:21.762Z,21.83
2023-02-06T09:38:25.416Z,26.95
2023-02-06T09:43:30.577Z,16.60
2023-02-06T09:48:34.853Z,21.02
2023-02-06T09:53:42.284Z,25.25
2023-02-06T09:58:50.435Z,41.70
2023-02-06T10:04:13.292Z,33.70
2023-02-06T10:09:18.919Z,35.35
2023-02-06T10:14:26.836Z,33.30
2023-02-06T10:19:35.449Z,23.50
2023-02-06T10:24:42.732Z,20.50
2023-02-06T10:29:47.969Z,23.63
2023-02-06T10:35:15.561Z,25.40
2023-02-06T10:40:23.713Z,26.23
2023-02-06T10:45:34.096Z,26.48
2023-02-06T10:50:39.146Z,34.75
2023-02-06T10:55:46.720Z,27.83
2023-02-06T11:00:53.263Z,28.73
2023-02-06T11:05:56.690Z,27.90
2023-02-06T11:11:00.325Z,25.38
2023-02-06T11:16:08.282Z,23.25
2023-02-06T11:21:12.851Z,26.27
2023-02-06T11:26:18.168Z,19.10
2023-02-06T11:31:39.428Z,25.33
2023-02-06T11:36:42.766Z,24.30
2023-02-06T11:41:57.000Z,21.02
2023-02-06T11:47:20.366Z,17.85
2023-02-06T11:52:30.953Z,17.90
2023-02-06T11:57:35.026Z,21.25
2023-02-06T12:02:39.845Z,21.42
2023-02-06T12:07:44.591Z,27.55
2023-02-06T12:12:50.510Z,19.73
2023-02-06T12:18:00.089Z,22.15
2023-02-06T12:23:07.156Z,24.67
2023-02-06T12:28:14.266Z,27.15
2023-02-06T12:33:20.111Z,26.70
2023-02-06T12:38:27.529Z,25.27
2023-02-06T12:43:33.718Z,27.98
2023-02-06T12:48:40.779Z,21.35
2023-02-06T12:53:45.928Z,16.35
2023-02-06T12:58:52.441Z,17.23
2023-02-06T13:03:58.289Z,23.05
2023-02-06T13:09:03.636Z,15.85
2023-02-06T13:14:08.395Z,17.33
2023-02-06T13:19:25.443Z,17.92
2023-02-06T13:24:28.747Z,16.65
2023-02-06T13:29:33.729Z,24.83
2023-02-06T13:34:38.814Z,23.48
2023-02-06T13:39:47.348Z,15.15
2023-02-06T13:44:50.756Z,25.13
2023-02-06T13:50:08.894Z,20.77
2023-02-06T13:55:21.520Z,16.23
2023-02-06T14:00:26.170Z,18.65
2023-02-06T14:05:32.313Z,12.93
2023-02-06T14:10:48.063Z,16.08
2023-02-06T14:15:56.386Z,15.00
2023-02-06T14:21:05.022Z,14.27
2023-02-06T14:26:15.263Z,19.80
2023-02-06T14:31:23.327Z,16.90
2023-02-06T14:36:39.273Z,10.95
2023-02-06T14:41:44.326Z,15.30
2023-02-06T14:46:47.987Z,14.48
2023-02-06T14:51:52.493Z,18.05
2023-02-06T14:56:58.594Z,17.85
2023-02-06T15:02:12.848Z,23.33
2023-02-06T15:07:22.351Z,15.98
2023-02-06T15:12:29.301Z,13.77
2023-02-06T15:17:34.383Z,10.48
2023-02-06T15:22:38.083Z,15.90
2023-02-06T15:27:42.799Z,15.10
2023-02-06T15:32:49.113Z,19.08
2023-02-06T15:37:52.896Z,18.20
2023-02-06T15:42:58.158Z,13.88
2023-02-06T15:48:08.694Z,20.35
2023-02-06T15:53:18.563Z,11.80
2023-02-06T15:58:23.741Z,15.02
2023-02-06T16:03:28.354Z,19.05
2023-02-06T16:08:34.760Z,17.45
2023-02-06T16:13:39.984Z,21.08
2023-02-06T16:18:43.348Z,17.10
2023-02-06T16:23:47.715Z,11.73
2023-02-06T16:28:55.646Z,16.63
2023-02-06T16:34:03.425Z,13.95
2023-02-06T16:39:07.000Z,14.27
2023-02-06T16:44:13.865Z,16.70
2023-02-06T16:49:18.485Z,16.85
2023-02-06T16:54:25.372Z,23.52
2023-02-06T16:59:29.915Z,25.08
2023-02-06T17:04:33.177Z,18.65
2023-02-06T17:09:36.434Z,22.65
2023-02-06T17:14:41.221Z,14.60
2023-02-06T17:19:44.784Z,19.27
2023-02-06T17:24:48.136Z,23.90
2023-02-06T17:29:53.943Z,16.50
2023-02-06T17:34:58.393Z,17.63
2023-02-06T17:40:01.982Z,17.52
2023-02-06T17:45:07.059Z,16.35
2023-02-06T17:50:11.002Z,18.23
2023-02-06T17:55:14.190Z,16.75
2023-02-06T18:00:22.418Z,20.23
2023-02-06T18:05:25.754Z,21.17
2023-02-06T18:10:29.293Z,16.95
2023-02-06T18:15:34.291Z,12.27
2023-02-06T18:20:37.657Z,15.15
2023-02-06T18:25:43.182Z,17.85
2023-02-06T18:30:48.073Z,18.08
2023-02-06T18:35:51.988Z,17.50
2023-02-06T18:40:55.512Z,18.52
2023-02-06T18:46:07.262Z,26.58
2023-02-06T18:51:10.840Z,11.80
2023-02-06T18:56:14.518Z,15.38
2023-02-06T19:01:21.166Z,12.68
2023-02-06T19:06:29.042Z,17.83
2023-02-06T19:11:32.405Z,22.88
2023-02-06T19:16:38.565Z,20.52
2023-02-06T19:21:46.375Z,21.30
2023-02-06T19:26:49.487Z,18.60
2023-02-06T19:31:54.180Z,21.23
2023-02-06T19:36:57.348Z,18.38
2023-02-06T19:42:00.669Z,22.40
2023-02-06T19:47:05.567Z,28.98
2023-02-06T19:52:09.682Z,15.07
2023-02-06T19:57:13.047Z,16.67
2023-02-06T20:02:17.780Z,18.60
2023-02-06T20:07:20.967Z,26.92
2023-02-06T20:12:24.406Z,19.17
2023-02-06T20:17:29.298Z,20.27
2023-02-06T20:22:33.021Z,23.65
2023-02-06T20:27:36.342Z,36.22
2023-02-06T20:32:41.388Z,28.40
2023-02-06T20:37:44.816Z,27.25
2023-02-06T20:42:48.188Z,26.13
2023-02-06T20:47:52.940Z,19.15
2023-02-06T20:52:56.422Z,26.30
2023-02-06T20:57:59.618Z,22.40
2023-02-06T21:03:04.646Z,28.70
2023-02-06T21:08:07.919Z,26.20
2023-02-06T21:13:11.050Z,21.63
2023-02-06T21:18:15.676Z,19.88
2023-02-06T21:23:19.102Z,25.30
2023-02-06T21:28:22.628Z,20.95
2023-02-06T21:33:27.399Z,27.25
2023-02-06T21:38:31.159Z,18.55
2023-02-06T21:43:34.838Z,16.55
2023-02-06T21:48:40.417Z,23.55
2023-02-06T21:53:44.061Z,22.00
2023-02-06T21:58:47.930Z,31.75
2023-02-06T22:03:52.750Z,24.17
2023-02-06T22:08:56.850Z,30.20
2023-02-06T22:14:01.051Z,20.63
2023-02-06T22:19:06.491Z,23.45
2023-02-06T22:24:10.165Z,26.77
2023-02-06T22:29:14.708Z,24.02
2023-02-06T22:34:20.068Z,20.42
2023-02-06T22:39:23.197Z,17.67
2023-02-06T22:44:26.407Z,26.63
2023-02-06T22:49:30.889Z,41.95
2023-02-06T22:54:33.979Z,32.45
2023-02-06T22:59:37.077Z,25.00
2023-02-06T23:04:41.606Z,21.25
2023-02-06T23:09:44.707Z,21.23
2023-02-06T23:14:47.811Z,18.90
2023-02-06T23:19:52.369Z,20.98
2023-02-06T23:24:55.601Z,19.42
2023-02-06T23:29:59.357Z,25.10
2023-02-06T23:35:04.611Z,27.20
2023-02-06T23:40:08.356Z,25.42
2023-02-06T23:45:11.674Z,22.42
2023-02-06T23:50:15.856Z,25.33
2023-02-06T23:55:20.672Z,22.08
